Delta, CO

8:56 AM MDT on August 23, 2014 (GMT -0600)
Nucla Hopkins Field Airport | Change Station
CLOSE
Current Station
Airport
Location: Nucla Hopkins Field Airport,
Elevation: 5942 ft
Nearby Weather Stations

Elev 5942 ft 38.24 °N, 108.57 °W | Updated 21 minutes ago

Rain
Rain
63 °F
Feels Like 63 °F
N
0
Wind Variable Wind from North

Today
High -- | Low -- °F
--% Chance of Precip.
Yesterday
High -- | Low -- °F
Precip. -- in
6:33 AM 7:55 PM
Waning Crescent, 4% visible
Pressure 30.15 in
Visibility 10.0 miles
Clouds Scattered Clouds 3500 ft
Scattered Clouds 6000 ft
Overcast 11000 ft
Dew Point 50 °F
Humidity 63%
Rainfall 0.00 in
Snow Depth Not available.
UV 1 out of 12
Pollen 8.30 out of 12
Air Quality Not available.
Flu Activity Not available.
METAR KAIB 231435Z AUTO 00000KT 10SM RA SCT035 SCT060 OVC110 17/10 A3015 RMK AO2

More Conditions Fewer Conditions

Pressure 30.15 in
Visibility 10.0 miles
Clouds Scattered Clouds 3500 ft
Scattered Clouds 6000 ft
Overcast 11000 ft
Dew Point 50 °F
Humidity 63%
Rainfall 0.00 in
Snow Depth Not available.
UV 1 out of 12
Pollen 8.30 out of 12
Air Quality Not available.
Flu Activity Not available.
METAR KAIB 231435Z AUTO 00000KT 10SM RA SCT035 SCT060 OVC110 17/10 A3015 RMK AO2

More Conditions Fewer Conditions

Nowcast | as of 8:41 am MDT on August 23, 2014

at 839 am MDT...Doppler radar indicated showers and thunderstorms moving through the Grand Junction vicinity. This storms will produce periods of heavy rain and occasional lighting through 945 am MDT. Locations impacted include... Grand Junction...Delta...Orchard City...Palisade...Cedaredge...De Beque...Mesa...Whitewater...Skyway...Molina...Cameo...Clifton... Eckert...Orchard Mesa...and Redlands.

×

10-Day Weather Forecast

Almanac

Astronomy

Aug. 23, 2014 Rise Set
Actual Time 6:33 AM MDT 7:55 PM MDT
Civil Twilight 6:05 AM MDT 8:23 PM MDT
Nautical Twilight 5:32 AM MDT 8:56 PM MDT
Astronomical Twilight 4:57 AM MDT 9:31 PM MDT
Moon 4:52 AM MDT 6:41 PM MDT
Length of Visible Light 14h 17m
Length of Day
13h 22m
Tomorrow will be 2m 19s shorter.
Waning Crescent, 4% of the Moon is Illuminated
Today
Waning Crescent
Aug 25
New
Sep 2
First Quarter
Sep 8
Full
Sep 15
Last Quarter

Today's Extremes

State Highs State Lows

Community

WunderPhotos

Upload Photos

1,746,477 photos uploaded!

WunderBlogs® & News

By Dr. Jeff Masters
Director of Meteorology, Weather Underground
By Kari Strenfel
Meteorologist, Weather Underground
By Christopher C. Burt
Weather Historian, Weather Underground
August 23, 2014
August 23, 2014
August 23, 2014

Nearby

Snow Depth

Station Depth Elevation
Mesa Lakes 0 in 10000 ft
Park Reservoir 0 in 9960 ft
Columbine Pass 0 in 9400 ft
Overland Reservoir 0 in 9880 ft
McClure Pass 2 in 9500 ft

Earthquake Activity

City Distance Mag. Time & Date
No recent earthquake activity has been reported nearby.
Minimum magnitude displayed is 2.5.

Coastal Water Temperatures

Place Temperature
No Stations Reporting

Nearby Weather Stations